createdAt,value
2022-08-26T00:00:48.077Z,98100.38
2022-08-26T00:03:16.396Z,98110.31
2022-08-26T00:05:44.377Z,98119.44
2022-08-26T00:08:12.993Z,98072.06
2022-08-26T00:10:41.769Z,98129.09
2022-08-26T00:13:09.871Z,98098.47
2022-08-26T00:15:37.379Z,98101.41
2022-08-26T00:18:04.408Z,98074.75
2022-08-26T00:20:43.677Z,98112.97
2022-08-26T00:23:10.388Z,98116.72
2022-08-26T00:25:37.747Z,98081.16
2022-08-26T00:28:09.491Z,98076.25
2022-08-26T00:30:38.194Z,98139.72
2022-08-26T00:33:05.735Z,98121.97
2022-08-26T00:35:33.535Z,98130.06
2022-08-26T00:38:01.484Z,98112.31
2022-08-26T00:40:35.743Z,98088.06
2022-08-26T00:43:03.438Z,98132.22
2022-08-26T00:45:43.937Z,98125.00
2022-08-26T00:48:12.383Z,98070.88
2022-08-26T00:50:48.022Z,98089.47
2022-08-26T00:53:16.912Z,98115.53
2022-08-26T00:55:43.807Z,98080.41
2022-08-26T00:58:10.820Z,98059.88
2022-08-26T01:00:37.546Z,98105.19
2022-08-26T01:03:05.255Z,98126.47
2022-08-26T01:05:32.115Z,98071.41
2022-08-26T01:07:59.159Z,98093.22
2022-08-26T01:10:29.139Z,98075.44
2022-08-26T01:13:00.656Z,98080.63
2022-08-26T01:15:36.012Z,98066.66
2022-08-26T01:18:05.385Z,98109.22
2022-08-26T01:20:53.066Z,98118.13
2022-08-26T01:23:28.923Z,98098.19
2022-08-26T01:26:02.776Z,98078.84
2022-08-26T01:28:33.681Z,98065.38
2022-08-26T01:31:03.843Z,98108.50
2022-08-26T01:33:50.828Z,98070.28
2022-08-26T01:36:17.528Z,98067.06
2022-08-26T01:38:45.094Z,98131.59
2022-08-26T01:41:16.332Z,98116.44
2022-08-26T01:43:50.426Z,98070.59
2022-08-26T01:46:18.448Z,98091.53
2022-08-26T01:48:45.895Z,98067.63
2022-08-26T01:51:15.434Z,98098.81
2022-08-26T01:53:43.491Z,98088.25
2022-08-26T01:56:14.913Z,98062.72
2022-08-26T01:58:52.732Z,98127.66
2022-08-26T02:01:21.241Z,98085.94
2022-08-26T02:04:07.084Z,98055.53
2022-08-26T02:06:37.469Z,98125.78
2022-08-26T02:09:04.770Z,98079.41
2022-08-26T02:11:32.897Z,98061.41
2022-08-26T02:14:05.535Z,98129.81
2022-08-26T02:16:38.567Z,98126.31
2022-08-26T02:19:16.978Z,98104.41
2022-08-26T02:21:46.245Z,98066.16
2022-08-26T02:24:27.904Z,98124.28
2022-08-26T02:26:56.758Z,98068.78
2022-08-26T02:29:35.170Z,98104.34
2022-08-26T02:32:02.009Z,98093.91
2022-08-26T02:34:31.536Z,98115.94
2022-08-26T02:37:05.957Z,98027.94
2022-08-26T02:39:33.987Z,98097.41
2022-08-26T02:42:00.851Z,98062.38
2022-08-26T02:44:27.658Z,98055.00
2022-08-26T02:46:54.387Z,98076.28
2022-08-26T02:49:22.485Z,98058.78
2022-08-26T02:51:50.003Z,98110.47
2022-08-26T02:54:19.432Z,98056.09
2022-08-26T02:56:46.074Z,98071.88
2022-08-26T02:59:13.439Z,98092.50
2022-08-26T03:01:40.496Z,98069.53
2022-08-26T03:04:10.452Z,98105.88
2022-08-26T03:06:37.951Z,98070.97
2022-08-26T03:09:05.445Z,98107.69
2022-08-26T03:11:33.325Z,98092.78
2022-08-26T03:14:00.683Z,98050.63
2022-08-26T03:16:37.072Z,98099.13
2022-08-26T03:19:06.629Z,97960.13
2022-08-26T03:21:35.728Z,98100.81
2022-08-26T03:24:03.213Z,98056.06
2022-08-26T03:26:30.760Z,98096.41
2022-08-26T03:28:57.722Z,98036.50
2022-08-26T03:31:25.445Z,98027.66
2022-08-26T03:33:53.966Z,98049.28
2022-08-26T03:36:23.280Z,98056.06
2022-08-26T03:38:51.220Z,98098.13
2022-08-26T03:41:18.081Z,98091.47
2022-08-26T03:43:44.786Z,98048.06
2022-08-26T03:46:12.208Z,98088.50
2022-08-26T03:48:40.351Z,98025.88
2022-08-26T03:51:13.303Z,98044.03
2022-08-26T03:53:40.252Z,98025.50
2022-08-26T03:56:07.031Z,98072.91
2022-08-26T03:58:34.131Z,98019.78
2022-08-26T04:01:00.808Z,98046.88
2022-08-26T04:03:28.210Z,98024.09
2022-08-26T04:05:54.846Z,98065.78
2022-08-26T04:08:21.505Z,98027.81
2022-08-26T04:10:48.563Z,98039.03
2022-08-26T04:13:17.829Z,98085.19
2022-08-26T04:15:44.440Z,98061.19
2022-08-26T04:18:11.549Z,98020.81
2022-08-26T04:20:39.038Z,98062.06
2022-08-26T04:23:05.868Z,98040.44
2022-08-26T04:25:32.686Z,98067.47
2022-08-26T04:27:59.346Z,98017.16
2022-08-26T04:30:25.960Z,98020.47
2022-08-26T04:32:52.697Z,98004.03
2022-08-26T04:35:25.419Z,98023.38
2022-08-26T04:37:52.558Z,98038.22
2022-08-26T04:40:19.177Z,98070.59
2022-08-26T04:42:45.850Z,98038.31
2022-08-26T04:45:12.459Z,98051.25
2022-08-26T04:47:39.092Z,98035.63
2022-08-26T04:50:07.351Z,98090.22
2022-08-26T04:52:34.979Z,98077.81
2022-08-26T04:55:01.755Z,98059.91
2022-08-26T04:57:28.711Z,98027.00
2022-08-26T04:59:55.426Z,98044.47
2022-08-26T05:02:22.638Z,98097.81
2022-08-26T05:04:49.484Z,98055.84
2022-08-26T05:07:18.576Z,98093.53
2022-08-26T05:09:45.981Z,98054.16
2022-08-26T05:12:12.640Z,98047.88
2022-08-26T05:14:39.584Z,98088.88
2022-08-26T05:17:06.218Z,98050.00
2022-08-26T05:19:33.574Z,98048.81
2022-08-26T05:22:00.196Z,98093.97
2022-08-26T05:24:26.860Z,98023.94
2022-08-26T05:26:53.976Z,98065.03
2022-08-26T05:29:20.584Z,97950.78
2022-08-26T05:31:52.014Z,98095.94
2022-08-26T05:34:18.704Z,98063.25
2022-08-26T05:36:47.221Z,98109.31
2022-08-26T05:39:13.999Z,98077.44
2022-08-26T05:41:42.745Z,98122.06
2022-08-26T05:44:14.454Z,98078.72
2022-08-26T05:46:41.588Z,98116.31
2022-08-26T05:49:12.487Z,98052.44
2022-08-26T05:51:40.772Z,98055.72
2022-08-26T05:54:07.343Z,98082.84
2022-08-26T05:56:37.695Z,98108.84
2022-08-26T05:59:05.063Z,98127.69
2022-08-26T06:01:32.052Z,98051.75
2022-08-26T06:04:02.855Z,98053.50
2022-08-26T06:06:33.575Z,98118.75
2022-08-26T06:09:03.899Z,98088.75
2022-08-26T06:11:31.612Z,98123.19
2022-08-26T06:14:04.538Z,98130.09
2022-08-26T06:16:34.104Z,98101.88
2022-08-26T06:19:02.973Z,98074.09
2022-08-26T06:21:33.885Z,98049.66
2022-08-26T06:24:04.615Z,98108.00
2022-08-26T06:26:32.546Z,98086.88
2022-08-26T06:28:59.765Z,98119.97
2022-08-26T06:31:28.787Z,98129.56
2022-08-26T06:33:56.068Z,98094.59
2022-08-26T06:36:25.321Z,98128.31
2022-08-26T06:38:54.314Z,98050.44
2022-08-26T06:41:22.503Z,98075.81
2022-08-26T06:43:50.114Z,98074.88
2022-08-26T06:46:20.402Z,98131.25
2022-08-26T06:48:47.503Z,98088.31
2022-08-26T06:51:20.742Z,98117.78
2022-08-26T06:53:52.139Z,98084.50
2022-08-26T06:56:22.599Z,98123.78
2022-08-26T06:58:52.126Z,98058.19
2022-08-26T07:01:34.092Z,98129.69
2022-08-26T07:04:07.923Z,98127.28
2022-08-26T07:06:43.108Z,98028.69
2022-08-26T07:09:10.612Z,98124.38
2022-08-26T07:11:38.413Z,98128.69
2022-08-26T07:14:05.540Z,98068.50
2022-08-26T07:16:32.608Z,98111.22
2022-08-26T07:18:59.808Z,98061.22
2022-08-26T07:21:30.261Z,98107.66
2022-08-26T07:24:01.494Z,98113.81
2022-08-26T07:26:30.540Z,98069.72
2022-08-26T07:28:58.474Z,98130.25
2022-08-26T07:31:27.873Z,98038.88
2022-08-26T07:33:56.965Z,98088.84
2022-08-26T07:36:25.759Z,98119.47
2022-08-26T07:38:52.866Z,98080.75
2022-08-26T07:41:22.449Z,98058.63
2022-08-26T07:43:49.989Z,98041.63
2022-08-26T07:46:16.719Z,97956.31
2022-08-26T07:48:45.967Z,98056.91
2022-08-26T07:51:15.640Z,98025.47
2022-08-26T07:53:43.666Z,97974.59
2022-08-26T07:56:14.913Z,98060.84
2022-08-26T07:58:41.729Z,98105.38
2022-08-26T08:01:09.486Z,98011.56
2022-08-26T08:03:36.258Z,98076.41
2022-08-26T08:06:03.136Z,98059.91
2022-08-26T08:08:29.965Z,98117.91
2022-08-26T08:10:58.796Z,98056.66
2022-08-26T08:13:26.462Z,98047.81
2022-08-26T08:15:53.655Z,98078.44
2022-08-26T08:18:20.727Z,98029.00
2022-08-26T08:21:04.584Z,98066.19
2022-08-26T08:23:32.691Z,98055.50
2022-08-26T08:26:09.637Z,98111.38
2022-08-26T08:28:38.701Z,98070.19
2022-08-26T08:31:05.762Z,98056.25
2022-08-26T08:33:34.298Z,98011.28
2022-08-26T08:36:01.363Z,98023.13
2022-08-26T08:38:28.607Z,98018.03
2022-08-26T08:40:55.325Z,98058.47
2022-08-26T08:43:32.782Z,98025.59
2022-08-26T08:46:10.451Z,98039.00
2022-08-26T08:48:42.247Z,98055.50
2022-08-26T08:51:24.365Z,98051.16
2022-08-26T08:53:54.602Z,98043.63
2022-08-26T08:56:28.642Z,98078.22
2022-08-26T08:59:07.855Z,98075.41
2022-08-26T09:02:05.760Z,98077.00
2022-08-26T09:05:02.321Z,98038.41
2022-08-26T09:07:38.835Z,98023.41
2022-08-26T09:10:47.317Z,98029.94
2022-08-26T09:13:25.394Z,98069.78
2022-08-26T09:16:10.639Z,98025.75
2022-08-26T09:18:46.475Z,98068.00
2022-08-26T09:21:15.282Z,98066.06
2022-08-26T09:23:49.152Z,97995.63
2022-08-26T09:26:27.270Z,97991.94
2022-08-26T09:29:02.905Z,98025.81
2022-08-26T09:31:35.323Z,98024.19
2022-08-26T09:34:05.222Z,98055.84
2022-08-26T09:36:41.187Z,98048.91
2022-08-26T09:39:25.326Z,97982.31
2022-08-26T09:42:21.079Z,98013.81
2022-08-26T09:45:02.226Z,97984.91
2022-08-26T09:47:32.003Z,98033.50
2022-08-26T09:50:19.999Z,97974.38
2022-08-26T09:52:47.238Z,97930.53
2022-08-26T09:55:23.715Z,97878.69
2022-08-26T09:57:55.232Z,98017.31
2022-08-26T10:00:28.794Z,98016.56
2022-08-26T10:02:58.144Z,97978.94
2022-08-26T10:05:34.569Z,98010.03
2022-08-26T10:08:17.371Z,97920.25
2022-08-26T10:10:45.263Z,97941.72
2022-08-26T10:13:11.787Z,97989.22
2022-08-26T10:15:53.194Z,97988.28
2022-08-26T10:18:24.673Z,97985.72
2022-08-26T10:21:05.069Z,97962.38
2022-08-26T10:26:20.862Z,97993.09
2022-08-26T10:29:02.902Z,97981.88
2022-08-26T10:31:40.563Z,97942.84
2022-08-26T10:34:09.427Z,97869.94
2022-08-26T10:37:05.106Z,97961.22
2022-08-26T10:39:31.934Z,97807.25
2022-08-26T10:42:08.557Z,97957.34
2022-08-26T10:44:41.138Z,97813.94
2022-08-26T10:47:18.781Z,97956.34
2022-08-26T10:49:49.140Z,97917.72
2022-08-26T10:52:39.263Z,97913.97
2022-08-26T10:55:20.398Z,97916.50
2022-08-26T10:58:06.490Z,97889.97
2022-08-26T11:00:46.706Z,97902.47
2022-08-26T11:03:23.848Z,97910.34
2022-08-26T11:06:18.685Z,97930.19
2022-08-26T11:09:05.960Z,97924.47
2022-08-26T11:11:42.142Z,97810.59
2022-08-26T11:14:10.687Z,97922.84
2022-08-26T11:16:43.671Z,97871.13
2022-08-26T11:19:56.840Z,97882.47
2022-08-26T11:22:34.780Z,97838.69
2022-08-26T11:25:06.781Z,97774.06
2022-08-26T11:27:35.963Z,97918.59
2022-08-26T11:30:14.759Z,97889.97
2022-08-26T11:32:41.332Z,97923.25
2022-08-26T11:35:10.180Z,97778.06
2022-08-26T11:37:45.635Z,97877.78
2022-08-26T11:40:16.440Z,97907.19
2022-08-26T11:42:59.680Z,97905.31
2022-08-26T11:45:36.452Z,97860.44
2022-08-26T11:48:17.225Z,97894.28
2022-08-26T11:51:04.034Z,97896.50
2022-08-26T11:53:34.189Z,97768.66
2022-08-26T11:56:06.045Z,97895.97
2022-08-26T11:58:32.960Z,97834.50
2022-08-26T12:01:05.530Z,97858.91
2022-08-26T12:03:50.150Z,97884.03
2022-08-26T12:06:28.927Z,97887.19
2022-08-26T12:08:58.571Z,97799.88
2022-08-26T12:11:31.532Z,97842.78
2022-08-26T12:14:01.419Z,97880.88
2022-08-26T12:16:30.433Z,97796.78
2022-08-26T12:18:57.195Z,97798.97
2022-08-26T12:21:31.484Z,97805.19
2022-08-26T12:24:04.223Z,97880.53
2022-08-26T12:26:34.654Z,97841.09
2022-08-26T12:29:20.250Z,97828.66
2022-08-26T12:31:52.384Z,97830.47
2022-08-26T12:34:19.595Z,97802.38
2022-08-26T12:36:54.203Z,97854.78
2022-08-26T12:39:35.591Z,97814.06
2022-08-26T12:42:15.234Z,97792.94
2022-08-26T12:44:57.814Z,97881.47
2022-08-26T12:47:42.943Z,97816.28
2022-08-26T12:50:16.656Z,97891.59
2022-08-26T12:52:57.251Z,97790.03
2022-08-26T12:55:33.192Z,97910.41
2022-08-26T12:58:36.551Z,97916.88
2022-08-26T13:01:06.373Z,97930.56
2022-08-26T13:03:36.077Z,97941.00
2022-08-26T13:06:15.897Z,97919.22
2022-08-26T13:08:52.098Z,97956.59
2022-08-26T13:11:39.092Z,97939.75
2022-08-26T13:14:18.401Z,97978.94
2022-08-26T13:16:50.794Z,97762.31
2022-08-26T13:19:21.068Z,97975.16
2022-08-26T13:21:51.588Z,97870.19
2022-08-26T13:24:28.816Z,97802.63
2022-08-26T13:26:55.542Z,97797.59
2022-08-26T13:29:22.176Z,97924.00
2022-08-26T13:31:49.381Z,97912.75
2022-08-26T13:34:19.834Z,97938.03
2022-08-26T13:36:51.963Z,97927.06
2022-08-26T13:39:19.137Z,97841.84
2022-08-26T13:41:46.338Z,97704.06
2022-08-26T13:44:13.457Z,97867.59
2022-08-26T13:46:40.769Z,97852.22
2022-08-26T13:49:07.956Z,97887.09
2022-08-26T13:51:34.785Z,97830.84
2022-08-26T13:54:01.544Z,97795.22
2022-08-26T13:56:29.919Z,97780.38
2022-08-26T13:58:57.823Z,97871.41
2022-08-26T14:01:24.945Z,97683.72
2022-08-26T14:03:52.123Z,97723.03
2022-08-26T14:06:19.278Z,97846.16
2022-08-26T14:08:46.901Z,97854.28
2022-08-26T14:11:13.651Z,97813.22
2022-08-26T14:13:40.301Z,97831.97
2022-08-26T14:16:21.438Z,97836.81
2022-08-26T14:18:50.717Z,97889.19
2022-08-26T14:21:18.461Z,97900.56
2022-08-26T14:23:45.362Z,97851.94
2022-08-26T14:26:19.039Z,97857.59
2022-08-26T14:28:55.328Z,97830.09
2022-08-26T14:31:22.251Z,97921.81
2022-08-26T14:33:49.178Z,97910.75
2022-08-26T14:36:15.777Z,97889.00
2022-08-26T14:38:42.394Z,97824.31
2022-08-26T14:41:10.054Z,97898.63
2022-08-26T14:43:44.808Z,97937.75
2022-08-26T14:46:13.836Z,97869.00
2022-08-26T14:48:40.635Z,97911.34
2022-08-26T14:51:07.536Z,97952.03
2022-08-26T14:53:34.087Z,97865.34
2022-08-26T14:56:00.909Z,97868.44
2022-08-26T14:58:28.579Z,97921.84
2022-08-26T15:01:04.130Z,97819.97
2022-08-26T15:03:31.160Z,97871.50
2022-08-26T15:05:57.965Z,97760.78
2022-08-26T15:08:24.526Z,97843.16
2022-08-26T15:10:51.260Z,97743.44
2022-08-26T15:13:17.861Z,97856.16
2022-08-26T15:15:44.643Z,97808.47
2022-08-26T15:18:11.345Z,97773.91
2022-08-26T15:20:38.006Z,97815.69
2022-08-26T15:23:06.900Z,97835.09
2022-08-26T15:25:33.895Z,97856.19
2022-08-26T15:28:00.475Z,97865.38
2022-08-26T15:30:27.094Z,97483.25
2022-08-26T15:32:53.742Z,97742.75
2022-08-26T15:35:20.430Z,97852.31
2022-08-26T15:37:47.051Z,97830.59
2022-08-26T15:40:14.218Z,97822.22
2022-08-26T15:42:40.869Z,97818.47
2022-08-26T15:45:07.900Z,97813.31
2022-08-26T15:47:35.519Z,97815.16
2022-08-26T15:50:21.496Z,97862.16
2022-08-26T15:52:48.091Z,97816.84
2022-08-26T15:55:14.805Z,97738.22
2022-08-26T15:57:41.413Z,97829.78
2022-08-26T16:00:09.960Z,97754.16
2022-08-26T16:02:39.443Z,97790.66
2022-08-26T16:05:06.668Z,97877.56
2022-08-26T16:07:33.260Z,97778.50
2022-08-26T16:09:59.908Z,97717.84
2022-08-26T16:12:26.703Z,97785.16
2022-08-26T16:14:56.532Z,97775.16
2022-08-26T16:17:23.111Z,97851.16
2022-08-26T16:19:49.772Z,97715.28
2022-08-26T16:22:16.416Z,97872.78
2022-08-26T16:24:43.238Z,97835.28
2022-08-26T16:27:09.840Z,97841.94
2022-08-26T16:29:38.015Z,97874.00
2022-08-26T16:32:05.127Z,97821.38
2022-08-26T16:34:31.749Z,97804.81
2022-08-26T16:36:58.434Z,97843.47
2022-08-26T16:39:25.071Z,97817.31
2022-08-26T16:41:51.648Z,97833.28
2022-08-26T16:44:18.392Z,97818.09
2022-08-26T16:46:45.023Z,97779.66
2022-08-26T16:49:11.709Z,97679.50
2022-08-26T16:51:38.877Z,97739.28
2022-08-26T16:54:07.180Z,97822.25
2022-08-26T16:56:34.606Z,97835.47
2022-08-26T16:59:07.228Z,97846.91
2022-08-26T17:01:34.051Z,97806.28
2022-08-26T17:04:00.710Z,97862.56
2022-08-26T17:06:27.524Z,97823.88
2022-08-26T17:08:54.116Z,97831.19
2022-08-26T17:11:20.772Z,97779.19
2022-08-26T17:13:47.388Z,97853.56
2022-08-26T17:16:14.959Z,97856.78
2022-08-26T17:18:42.040Z,97782.69
2022-08-26T17:21:12.228Z,97863.84
2022-08-26T17:23:40.685Z,97816.72
2022-08-26T17:26:07.504Z,97850.59
2022-08-26T17:28:34.465Z,97860.06
2022-08-26T17:31:01.892Z,97831.16
2022-08-26T17:33:28.989Z,97817.59
2022-08-26T17:35:56.370Z,97864.66
2022-08-26T17:38:23.731Z,97869.50
2022-08-26T17:40:51.074Z,97880.78
2022-08-26T17:43:18.376Z,97300.22
2022-08-26T17:45:45.089Z,97916.31
2022-08-26T17:48:12.366Z,97923.56
2022-08-26T17:50:41.485Z,97790.44
2022-08-26T17:53:09.206Z,97917.22
2022-08-26T17:55:48.735Z,97890.34
2022-08-26T17:58:17.624Z,97775.91
2022-08-26T18:00:47.509Z,97872.69
2022-08-26T18:03:14.885Z,97927.72
2022-08-26T18:05:42.004Z,97889.09
2022-08-26T18:08:09.542Z,97937.16
2022-08-26T18:10:36.351Z,97843.41
2022-08-26T18:13:03.044Z,97754.34
2022-08-26T18:15:29.853Z,97883.81
2022-08-26T18:17:56.509Z,97882.47
2022-08-26T18:20:23.433Z,97877.88
2022-08-26T18:22:50.009Z,97874.97
2022-08-26T18:25:17.784Z,97936.50
2022-08-26T18:27:44.689Z,97836.31
2022-08-26T18:30:17.318Z,97933.25
2022-08-26T18:32:44.421Z,97946.72
2022-08-26T18:35:12.060Z,97894.66
2022-08-26T18:37:39.618Z,97944.03
2022-08-26T18:40:08.591Z,97875.22
2022-08-26T18:42:35.692Z,97950.44
2022-08-26T18:45:04.067Z,97790.19
2022-08-26T18:47:31.453Z,97922.63
2022-08-26T18:49:58.064Z,97894.72
2022-08-26T18:52:24.755Z,97872.19
2022-08-26T18:54:51.475Z,97916.91
2022-08-26T18:57:18.335Z,97725.56
2022-08-26T18:59:44.990Z,97959.03
2022-08-26T19:02:12.935Z,97883.19
2022-08-26T19:04:39.638Z,97834.88
2022-08-26T19:07:07.578Z,97951.75
2022-08-26T19:09:35.235Z,97952.34
2022-08-26T19:12:03.298Z,97880.00
2022-08-26T19:14:30.923Z,97946.69
2022-08-26T19:16:57.760Z,97917.88
2022-08-26T19:19:24.380Z,97890.81
2022-08-26T19:21:51.230Z,97845.25
2022-08-26T19:24:20.038Z,97962.22
2022-08-26T19:26:57.038Z,97929.25
2022-08-26T19:29:27.878Z,97821.22
2022-08-26T19:31:54.895Z,97942.09
2022-08-26T19:34:21.681Z,97966.25
2022-08-26T19:36:49.114Z,97863.31
2022-08-26T19:39:15.905Z,97902.75
2022-08-26T19:41:42.634Z,97916.19
2022-08-26T19:44:15.350Z,97874.63
2022-08-26T19:46:42.039Z,97912.00
2022-08-26T19:49:08.695Z,97876.06
2022-08-26T19:51:36.643Z,97926.84
2022-08-26T19:54:03.732Z,97863.22
2022-08-26T19:56:30.444Z,97865.38
2022-08-26T19:58:57.239Z,97953.66
2022-08-26T20:01:23.997Z,97950.16
2022-08-26T20:03:50.766Z,97878.19
2022-08-26T20:06:19.134Z,97905.06
2022-08-26T20:08:45.926Z,97944.19
2022-08-26T20:11:16.300Z,97940.41
2022-08-26T20:13:44.992Z,97906.66
2022-08-26T20:16:11.980Z,97898.13
2022-08-26T20:18:41.146Z,97948.06
2022-08-26T20:21:07.954Z,97913.16
2022-08-26T20:23:34.681Z,97946.44
2022-08-26T20:26:01.376Z,97883.13
2022-08-26T20:28:28.185Z,97903.50
2022-08-26T20:30:54.954Z,97888.22
2022-08-26T20:33:21.821Z,97951.31
2022-08-26T20:35:48.484Z,97877.19
2022-08-26T20:38:16.647Z,97925.81
2022-08-26T20:40:45.288Z,97883.13
2022-08-26T20:43:12.099Z,97865.13
2022-08-26T20:45:38.767Z,97872.91
2022-08-26T20:48:05.522Z,97949.72
2022-08-26T20:50:32.150Z,97909.97
2022-08-26T20:53:01.931Z,97972.81
2022-08-26T20:55:28.547Z,97967.16
2022-08-26T20:57:55.288Z,97957.78
2022-08-26T21:00:26.549Z,97881.50
2022-08-26T21:02:54.564Z,97920.69
2022-08-26T21:05:21.293Z,97889.00
2022-08-26T21:07:47.975Z,97956.19
2022-08-26T21:10:15.235Z,97947.84
2022-08-26T21:12:42.790Z,97965.84
2022-08-26T21:15:10.140Z,97937.91
2022-08-26T21:17:36.857Z,97979.22
2022-08-26T21:20:04.273Z,97892.78
2022-08-26T21:22:30.920Z,97955.34
2022-08-26T21:24:57.542Z,97981.94
2022-08-26T21:27:26.412Z,97925.25
2022-08-26T21:29:53.556Z,97929.25
2022-08-26T21:32:20.315Z,97977.91
2022-08-26T21:34:47.004Z,97955.09
2022-08-26T21:37:16.872Z,97957.72
2022-08-26T21:39:44.128Z,97991.06
2022-08-26T21:42:11.144Z,97971.19
2022-08-26T21:44:37.735Z,97972.78
2022-08-26T21:47:07.447Z,97927.63
2022-08-26T21:49:35.251Z,97894.59
2022-08-26T21:54:28.552Z,97945.00
2022-08-26T21:56:55.254Z,97620.59
2022-08-26T21:59:22.002Z,97973.66
2022-08-26T22:01:49.186Z,98006.06
2022-08-26T22:04:16.709Z,97959.19
2022-08-26T22:06:46.520Z,97968.81
2022-08-26T22:09:14.994Z,97967.09
2022-08-26T22:11:41.813Z,97961.00
2022-08-26T22:14:09.546Z,97981.47
2022-08-26T22:16:36.257Z,98003.06
2022-08-26T22:19:03.215Z,97995.59
2022-08-26T22:21:30.133Z,98018.97
2022-08-26T22:23:58.333Z,98005.88
2022-08-26T22:26:29.895Z,97990.78
2022-08-26T22:28:59.074Z,98035.47
2022-08-26T22:31:37.497Z,97966.06
2022-08-26T22:34:11.863Z,98033.03
2022-08-26T22:36:43.611Z,97942.34
2022-08-26T22:39:13.195Z,97934.84
2022-08-26T22:41:40.152Z,97928.44
2022-08-26T22:44:06.788Z,97964.13
2022-08-26T22:46:33.628Z,98002.13
2022-08-26T22:49:00.445Z,97983.75
2022-08-26T22:51:27.034Z,97981.88
2022-08-26T22:53:53.983Z,98005.78
2022-08-26T22:56:20.577Z,97967.88
2022-08-26T22:58:47.605Z,97956.34
2022-08-26T23:01:14.401Z,97997.16
2022-08-26T23:03:41.465Z,97917.03
2022-08-26T23:06:09.553Z,98005.69
2022-08-26T23:08:37.055Z,98041.44
2022-08-26T23:11:10.572Z,98038.50
2022-08-26T23:13:37.952Z,97992.22
2022-08-26T23:16:08.327Z,97994.16
2022-08-26T23:18:35.985Z,97972.94
2022-08-26T23:21:02.815Z,97963.00
2022-08-26T23:23:29.603Z,97967.00
2022-08-26T23:25:56.601Z,97888.78
2022-08-26T23:28:24.207Z,97970.56
2022-08-26T23:30:50.794Z,97960.63
2022-08-26T23:33:17.476Z,97970.31
2022-08-26T23:35:44.595Z,97952.56
2022-08-26T23:38:14.095Z,97947.44
2022-08-26T23:40:41.246Z,97942.66
2022-08-26T23:43:10.187Z,98019.53
2022-08-26T23:45:37.452Z,97942.34
2022-08-26T23:48:04.669Z,97972.44
2022-08-26T23:50:31.928Z,97949.34
2022-08-26T23:52:58.654Z,97977.84
2022-08-26T23:55:25.282Z,97946.66
2022-08-26T23:57:51.965Z,97945.84
